createdAt,value
2022-12-18T00:02:01.861Z,40.40
2022-12-18T00:04:29.082Z,38.33
2022-12-18T00:06:55.399Z,42.00
2022-12-18T00:09:21.931Z,43.03
2022-12-18T00:11:50.885Z,44.13
2022-12-18T00:14:17.137Z,46.03
2022-12-18T00:16:47.359Z,49.78
2022-12-18T00:19:14.522Z,50.13
2022-12-18T00:21:40.865Z,52.65
2022-12-18T00:24:07.400Z,51.45
2022-12-18T00:26:35.049Z,56.50
2022-12-18T00:29:05.905Z,49.60
2022-12-18T00:31:32.181Z,53.53
2022-12-18T00:34:00.824Z,64.53
2022-12-18T00:36:34.301Z,56.58
2022-12-18T00:39:02.148Z,66.07
2022-12-18T00:41:47.354Z,64.72
2022-12-18T00:44:15.633Z,62.25
2022-12-18T00:46:43.532Z,60.00
2022-12-18T00:49:09.665Z,58.45
2022-12-18T00:51:35.844Z,59.42
2022-12-18T00:54:02.079Z,58.22
2022-12-18T00:56:28.195Z,55.25
2022-12-18T00:58:54.383Z,47.75
2022-12-18T01:01:20.912Z,45.47
2022-12-18T01:03:47.728Z,45.63
2022-12-18T01:06:16.491Z,47.20
2022-12-18T01:08:43.184Z,49.42
2022-12-18T01:11:16.201Z,40.00
2022-12-18T01:13:42.464Z,46.85
2022-12-18T01:16:09.974Z,44.45
2022-12-18T01:18:36.750Z,40.05
2022-12-18T01:21:07.900Z,41.53
2022-12-18T01:23:37.280Z,41.83
2022-12-18T01:26:08.504Z,41.47
2022-12-18T01:28:35.318Z,41.05
2022-12-18T01:31:23.143Z,37.75
2022-12-18T01:33:49.455Z,30.58
2022-12-18T01:36:20.429Z,34.42
2022-12-18T01:38:47.504Z,36.58
2022-12-18T01:41:14.593Z,40.75
2022-12-18T01:43:45.013Z,36.90
2022-12-18T01:46:11.673Z,37.00
2022-12-18T01:48:39.847Z,35.20
2022-12-18T01:51:07.940Z,36.35
2022-12-18T01:53:34.417Z,34.90
2022-12-18T01:56:00.715Z,34.83
2022-12-18T01:58:49.598Z,37.78
2022-12-18T02:01:15.909Z,35.45
2022-12-18T02:03:43.940Z,35.53
2022-12-18T02:06:17.174Z,33.22
2022-12-18T02:08:49.456Z,33.28
2022-12-18T02:11:47.396Z,31.60
2022-12-18T02:14:40.038Z,37.38
2022-12-18T02:17:19.684Z,34.25
2022-12-18T02:20:16.989Z,30.23
2022-12-18T02:23:10.840Z,32.08
2022-12-18T02:25:56.033Z,28.60
2022-12-18T02:28:25.871Z,31.60
2022-12-18T02:30:57.313Z,35.33
2022-12-18T02:33:28.794Z,35.00
2022-12-18T02:35:58.523Z,34.97
2022-12-18T02:38:26.593Z,38.08
2022-12-18T02:40:55.014Z,39.53
2022-12-18T02:43:22.773Z,38.20
2022-12-18T02:45:53.105Z,32.30
2022-12-18T02:48:23.837Z,37.40
2022-12-18T02:51:18.321Z,36.13
2022-12-18T02:54:24.593Z,33.88
2022-12-18T02:56:58.756Z,34.80
2022-12-18T02:59:38.778Z,33.95
2022-12-18T03:02:27.532Z,31.75
2022-12-18T03:05:05.734Z,34.60
2022-12-18T03:07:46.325Z,32.30
2022-12-18T03:10:17.619Z,32.35
2022-12-18T03:12:52.380Z,34.47
2022-12-18T03:15:21.924Z,35.42
2022-12-18T03:18:10.064Z,38.33
2022-12-18T03:20:39.059Z,34.33
2022-12-18T03:23:19.015Z,36.40
2022-12-18T03:25:51.884Z,36.25
2022-12-18T03:28:22.729Z,37.47
2022-12-18T03:30:59.054Z,34.83
2022-12-18T03:33:41.133Z,37.40
2022-12-18T03:36:08.027Z,30.00
2022-12-18T03:38:34.307Z,35.20
2022-12-18T03:41:09.614Z,35.67
2022-12-18T03:44:00.840Z,41.30
2022-12-18T03:47:06.396Z,37.92
2022-12-18T03:49:37.604Z,38.83
2022-12-18T03:52:12.196Z,34.88
2022-12-18T03:54:42.776Z,38.60
2022-12-18T03:57:25.807Z,38.65
2022-12-18T03:59:58.355Z,41.40
2022-12-18T04:02:31.500Z,37.42
2022-12-18T04:05:04.541Z,41.50
2022-12-18T04:07:31.693Z,41.53
2022-12-18T04:10:00.910Z,32.45
2022-12-18T04:12:30.309Z,39.17
2022-12-18T04:14:56.712Z,41.25
2022-12-18T04:17:23.535Z,37.88
2022-12-18T04:19:49.750Z,36.35
2022-12-18T04:22:16.588Z,37.50
2022-12-18T04:24:47.067Z,36.40
2022-12-18T04:27:24.925Z,36.55
2022-12-18T04:29:51.256Z,36.33
2022-12-18T04:32:18.475Z,32.50
2022-12-18T04:34:44.928Z,32.28
2022-12-18T04:37:11.055Z,36.40
2022-12-18T04:39:37.536Z,33.15
2022-12-18T04:42:09.612Z,36.25
2022-12-18T04:44:35.845Z,37.42
2022-12-18T04:47:01.955Z,36.25
2022-12-18T04:49:28.153Z,36.13
2022-12-18T04:51:54.585Z,36.72
2022-12-18T04:54:21.444Z,40.45
2022-12-18T13:53:34.423Z,27.73
2022-12-18T13:56:00.629Z,31.25
2022-12-18T13:58:26.749Z,29.23
2022-12-18T14:00:53.490Z,29.08
2022-12-18T14:03:23.494Z,31.95
2022-12-18T14:06:00.996Z,32.72
2022-12-18T14:08:33.382Z,35.97
2022-12-18T14:10:59.667Z,30.65
2022-12-18T14:13:30.521Z,28.13
2022-12-18T14:15:59.173Z,31.48
2022-12-18T14:18:37.520Z,35.30
2022-12-18T14:21:05.139Z,37.78
2022-12-18T14:23:31.171Z,36.67
2022-12-18T14:26:02.088Z,38.63
2022-12-18T14:28:32.717Z,36.20
2022-12-18T14:30:58.970Z,32.75
2022-12-18T14:33:27.513Z,28.75
2022-12-18T14:36:06.895Z,30.90
2022-12-18T14:38:39.842Z,31.60
2022-12-18T14:41:07.645Z,32.80
2022-12-18T14:43:36.264Z,36.42
2022-12-18T14:46:04.586Z,36.92
2022-12-18T14:48:40.120Z,36.10
2022-12-18T14:51:17.750Z,37.83
2022-12-18T14:53:50.711Z,31.42
2022-12-18T14:56:26.788Z,35.05
2022-12-18T14:58:56.925Z,40.85
2022-12-18T15:01:29.241Z,37.60
2022-12-18T15:03:57.183Z,37.67
2022-12-18T15:06:31.562Z,37.15
2022-12-18T15:08:58.888Z,37.40
2022-12-18T15:11:41.454Z,34.25
2022-12-18T15:14:39.492Z,36.65
2022-12-18T15:17:20.964Z,31.92
2022-12-18T15:19:50.947Z,36.35
2022-12-18T15:22:19.731Z,31.33
2022-12-18T15:24:46.266Z,36.70
2022-12-18T15:27:23.795Z,39.17
2022-12-18T15:30:08.945Z,34.03
2022-12-18T15:32:37.281Z,34.15
2022-12-18T15:35:12.262Z,31.48
2022-12-18T15:37:38.865Z,31.08
2022-12-18T15:40:06.629Z,34.60
2022-12-18T15:42:51.241Z,33.20
2022-12-18T15:45:17.380Z,31.88
2022-12-18T15:47:45.477Z,39.85
2022-12-18T15:50:11.749Z,31.10
2022-12-18T15:52:43.127Z,34.85
2022-12-18T15:55:42.119Z,31.38
2022-12-18T15:58:09.836Z,30.05
2022-12-18T16:00:38.916Z,30.33
2022-12-18T16:03:06.227Z,33.55
2022-12-18T16:05:32.624Z,29.83
2022-12-18T16:07:59.330Z,29.75
2022-12-18T16:10:27.244Z,37.17
2022-12-18T16:12:53.507Z,30.30
2022-12-18T16:15:24.243Z,28.25
2022-12-18T16:17:50.895Z,31.55
2022-12-18T16:20:22.452Z,50.42
2022-12-18T16:22:49.615Z,33.88
2022-12-18T16:25:20.744Z,34.03
2022-12-18T16:27:47.040Z,31.02
2022-12-18T16:30:30.538Z,33.75
2022-12-18T16:33:04.504Z,34.65
2022-12-18T16:35:30.608Z,31.30
2022-12-18T16:37:56.722Z,31.17
2022-12-18T16:40:22.829Z,29.30
2022-12-18T16:42:48.951Z,31.90
2022-12-18T16:45:18.372Z,32.65
2022-12-18T16:47:45.502Z,32.78
2022-12-18T16:50:12.132Z,29.92
2022-12-18T16:52:38.699Z,34.63
2022-12-18T16:55:05.274Z,29.00
2022-12-18T16:57:31.535Z,30.33
2022-12-18T17:00:02.973Z,35.80
2022-12-18T17:02:31.311Z,33.88
2022-12-18T17:04:58.712Z,36.33
2022-12-18T17:07:26.164Z,34.55
2022-12-18T17:09:54.181Z,42.17
2022-12-18T17:12:21.106Z,39.65
2022-12-18T17:14:47.352Z,39.47
2022-12-18T17:17:22.325Z,47.25
2022-12-18T17:19:49.856Z,41.60
2022-12-18T17:22:16.054Z,38.67
2022-12-18T17:24:42.150Z,37.53
2022-12-18T17:27:09.003Z,40.00
2022-12-18T17:29:35.114Z,39.10
2022-12-18T17:32:01.252Z,40.67
2022-12-18T17:34:27.877Z,42.00
2022-12-18T17:36:54.348Z,39.50
2022-12-18T17:39:20.984Z,42.88
2022-12-18T17:41:48.181Z,48.88
2022-12-18T17:44:14.530Z,43.67
2022-12-18T17:46:40.951Z,40.38
2022-12-18T17:49:07.097Z,43.70
2022-12-18T17:51:33.230Z,45.17
2022-12-18T17:53:59.442Z,48.10
2022-12-18T17:56:26.074Z,48.28
2022-12-18T17:58:52.264Z,49.65
2022-12-18T18:01:24.487Z,48.13
2022-12-18T18:03:53.514Z,49.25
2022-12-18T18:06:20.059Z,50.45
2022-12-18T18:08:46.223Z,53.47
2022-12-18T18:11:33.892Z,64.85
2022-12-18T18:14:00.872Z,71.50
2022-12-18T18:16:33.515Z,60.28
2022-12-18T18:19:03.095Z,49.28
2022-12-18T18:21:29.853Z,49.08
2022-12-18T18:23:59.724Z,47.05
2022-12-18T18:26:29.347Z,49.35
2022-12-18T18:28:56.116Z,50.70
2022-12-18T18:31:26.779Z,43.28
2022-12-18T18:33:53.058Z,48.78
2022-12-18T18:36:19.241Z,48.72
2022-12-18T18:38:48.381Z,49.88
2022-12-18T18:41:15.057Z,43.58
2022-12-18T18:43:42.009Z,50.80
2022-12-18T18:46:13.002Z,50.78
2022-12-18T18:48:42.381Z,54.22
2022-12-18T18:51:14.684Z,61.42
2022-12-18T18:53:48.576Z,56.05
2022-12-18T18:56:56.632Z,52.92
2022-12-18T18:59:02.758Z,56.92
2022-12-18T19:01:29.064Z,52.30
2022-12-18T19:03:55.463Z,55.15
2022-12-18T19:06:27.090Z,56.83
2022-12-18T19:08:56.078Z,50.72
2022-12-18T19:11:42.261Z,49.97
2022-12-18T19:14:10.740Z,49.15
2022-12-18T19:16:37.366Z,58.33
2022-12-18T19:19:04.551Z,51.00
2022-12-18T19:21:34.189Z,51.50
2022-12-18T19:24:01.701Z,49.40
2022-12-18T19:26:28.761Z,52.20
2022-12-18T19:29:00.096Z,55.45
2022-12-18T19:31:30.383Z,56.13
2022-12-18T19:34:00.059Z,48.83
2022-12-18T19:36:28.924Z,46.30
2022-12-18T19:38:58.285Z,49.78
2022-12-18T19:41:25.512Z,51.97
2022-12-18T19:43:52.835Z,51.28
2022-12-18T19:46:22.140Z,58.47
2022-12-18T19:48:49.151Z,49.97
2022-12-18T19:51:21.276Z,56.40
2022-12-18T19:53:47.879Z,57.40
2022-12-18T19:56:16.460Z,60.65
2022-12-18T19:58:44.115Z,53.72
2022-12-18T20:01:11.430Z,51.90
2022-12-18T20:03:39.166Z,60.88
2022-12-18T20:06:10.216Z,61.10
2022-12-18T20:08:37.043Z,53.85
2022-12-18T20:11:03.147Z,58.38
2022-12-18T20:13:29.495Z,57.17
2022-12-18T20:15:55.671Z,55.92
2022-12-18T20:18:21.892Z,54.90
2022-12-18T20:20:48.826Z,61.33
2022-12-18T20:23:16.778Z,52.33
2022-12-18T20:25:42.906Z,51.70
2022-12-18T20:28:09.083Z,58.20
2022-12-18T20:30:35.214Z,54.88
2022-12-18T20:33:01.338Z,59.45
2022-12-18T20:35:28.816Z,49.05
2022-12-18T20:37:57.943Z,50.97
2022-12-18T20:40:26.348Z,59.83
2022-12-18T20:42:52.548Z,51.03
2022-12-18T20:45:20.257Z,52.40
2022-12-18T20:47:46.394Z,59.58
2022-12-18T20:50:12.682Z,56.33
2022-12-18T20:52:38.864Z,57.30
2022-12-18T20:55:06.436Z,53.65
2022-12-18T20:57:33.067Z,59.65
2022-12-18T20:59:59.284Z,58.53
2022-12-18T21:02:25.779Z,57.08
2022-12-18T21:04:52.075Z,55.80
2022-12-18T21:07:18.202Z,55.67
2022-12-18T21:09:44.327Z,51.58
2022-12-18T21:12:38.895Z,56.70
2022-12-18T21:15:14.273Z,52.47
2022-12-18T21:17:44.575Z,58.22
2022-12-18T21:20:11.888Z,52.25
2022-12-18T21:22:43.861Z,55.30
2022-12-18T21:25:10.101Z,54.40
2022-12-18T21:27:36.247Z,56.53
2022-12-18T21:30:02.533Z,57.95
2022-12-18T21:32:30.936Z,51.33
2022-12-18T21:34:59.680Z,59.03
2022-12-18T21:37:25.824Z,60.03
2022-12-18T21:39:52.013Z,61.75
2022-12-18T21:42:36.951Z,54.63
2022-12-18T21:45:03.135Z,51.30
2022-12-18T21:47:29.300Z,56.75
2022-12-18T21:49:55.451Z,62.42
2022-12-18T21:52:32.059Z,57.90
2022-12-18T21:55:01.883Z,55.63
2022-12-18T21:57:34.443Z,59.90
2022-12-18T22:00:02.070Z,58.97
2022-12-18T22:02:38.231Z,56.35
2022-12-18T22:05:04.759Z,56.50
2022-12-18T22:07:31.236Z,61.95
2022-12-18T22:09:57.361Z,50.47
2022-12-18T22:12:43.311Z,60.22
2022-12-18T22:15:11.956Z,55.60
2022-12-18T22:17:40.001Z,63.92
2022-12-18T22:20:06.874Z,63.45
2022-12-18T22:22:32.977Z,54.55
2022-12-18T22:24:59.091Z,62.55
2022-12-18T22:27:25.209Z,59.10
2022-12-18T22:30:06.592Z,59.80
2022-12-18T22:32:35.088Z,52.80
2022-12-18T22:35:09.184Z,54.75
2022-12-18T22:37:37.104Z,54.80
2022-12-18T22:40:03.790Z,64.38
2022-12-18T22:42:30.857Z,59.67
2022-12-18T22:44:57.021Z,61.80
2022-12-18T22:47:27.872Z,68.72
2022-12-18T22:49:55.819Z,58.72
2022-12-18T22:52:21.953Z,56.05
2022-12-18T22:54:50.461Z,55.33
2022-12-18T22:57:16.559Z,57.78
2022-12-18T22:59:42.767Z,59.00
2022-12-18T23:02:08.988Z,59.83
2022-12-18T23:04:36.942Z,66.57
2022-12-18T23:07:04.907Z,55.63
2022-12-18T23:09:31.112Z,61.67
2022-12-18T23:11:57.234Z,61.78
2022-12-18T23:14:23.414Z,60.20
2022-12-18T23:16:49.531Z,59.33
2022-12-18T23:19:18.334Z,55.17
2022-12-18T23:21:44.437Z,61.13
2022-12-18T23:24:10.683Z,68.15
2022-12-18T23:26:37.312Z,58.28
2022-12-18T23:29:04.237Z,57.05
2022-12-18T23:31:33.329Z,57.15
2022-12-18T23:34:01.519Z,58.95
2022-12-18T23:36:28.603Z,55.13
2022-12-18T23:38:58.800Z,60.13
2022-12-18T23:41:28.179Z,57.72
2022-12-18T23:43:54.776Z,62.35
2022-12-18T23:46:26.158Z,58.88
2022-12-18T23:48:52.870Z,53.30
2022-12-18T23:51:22.834Z,55.38
2022-12-18T23:53:50.003Z,60.63
2022-12-18T23:56:16.518Z,60.78
2022-12-18T23:58:43.293Z,48.15
